sensor_id;sensor_type;location;lat;lon;timestamp;temperature;humidity
53274;DHT22;39163;52.696;6.758;2023-02-17T00:01:22;9.80;99.90
53274;DHT22;39163;52.696;6.758;2023-02-17T00:03:48;9.80;99.90
53274;DHT22;39163;52.696;6.758;2023-02-17T00:06:27;9.80;99.90
53274;DHT22;39163;52.696;6.758;2023-02-17T00:08:53;9.90;99.90
53274;DHT22;39163;52.696;6.758;2023-02-17T00:11:25;9.80;99.90
53274;DHT22;39163;52.696;6.758;2023-02-17T00:13:52;9.90;99.90
53274;DHT22;39163;52.696;6.758;2023-02-17T00:16:19;9.90;99.90
53274;DHT22;39163;52.696;6.758;2023-02-17T00:18:45;9.90;99.90
53274;DHT22;39163;52.696;6.758;2023-02-17T00:21:12;10.00;99.90
53274;DHT22;39163;52.696;6.758;2023-02-17T00:23:42;9.90;99.90
53274;DHT22;39163;52.696;6.758;2023-02-17T00:26:07;9.90;99.90
53274;DHT22;39163;52.696;6.758;2023-02-17T00:28:36;9.90;99.90
53274;DHT22;39163;52.696;6.758;2023-02-17T00:31:15;9.90;99.90
53274;DHT22;39163;52.696;6.758;2023-02-17T00:33:41;9.90;99.90
53274;DHT22;39163;52.696;6.758;2023-02-17T00:36:14;9.90;99.90
53274;DHT22;39163;52.696;6.758;2023-02-17T00:38:45;9.90;99.90
53274;DHT22;39163;52.696;6.758;2023-02-17T00:41:13;9.90;99.90
53274;DHT22;39163;52.696;6.758;2023-02-17T00:43:48;9.90;99.90
53274;DHT22;39163;52.696;6.758;2023-02-17T00:46:14;9.90;99.90
53274;DHT22;39163;52.696;6.758;2023-02-17T00:48:49;10.00;99.90
53274;DHT22;39163;52.696;6.758;2023-02-17T00:51:21;10.00;99.90
53274;DHT22;39163;52.696;6.758;2023-02-17T00:53:50;9.90;99.90
53274;DHT22;39163;52.696;6.758;2023-02-17T00:56:21;9.90;99.90
53274;DHT22;39163;52.696;6.758;2023-02-17T00:58:47;10.00;99.90
53274;DHT22;39163;52.696;6.758;2023-02-17T01:01:23;10.00;99.90
53274;DHT22;39163;52.696;6.758;2023-02-17T01:03:48;10.00;99.90
53274;DHT22;39163;52.696;6.758;2023-02-17T01:06:21;9.90;99.90
53274;DHT22;39163;52.696;6.758;2023-02-17T01:08:47;9.90;99.90
53274;DHT22;39163;52.696;6.758;2023-02-17T01:11:23;10.00;99.90
53274;DHT22;39163;52.696;6.758;2023-02-17T01:13:50;10.00;99.90
53274;DHT22;39163;52.696;6.758;2023-02-17T01:16:23;10.00;99.90
53274;DHT22;39163;52.696;6.758;2023-02-17T01:18:49;10.00;99.90
53274;DHT22;39163;52.696;6.758;2023-02-17T01:21:15;10.00;99.90
53274;DHT22;39163;52.696;6.758;2023-02-17T01:23:47;9.90;99.90
53274;DHT22;39163;52.696;6.758;2023-02-17T01:26:29;10.00;99.90
53274;DHT22;39163;52.696;6.758;2023-02-17T01:28:55;10.00;99.90
53274;DHT22;39163;52.696;6.758;2023-02-17T01:31:33;10.00;99.90
53274;DHT22;39163;52.696;6.758;2023-02-17T01:34:03;10.00;99.90
53274;DHT22;39163;52.696;6.758;2023-02-17T01:36:44;9.90;99.90
53274;DHT22;39163;52.696;6.758;2023-02-17T01:39:12;10.00;99.90
53274;DHT22;39163;52.696;6.758;2023-02-17T01:41:40;9.90;99.90
53274;DHT22;39163;52.696;6.758;2023-02-17T01:46:45;10.00;99.90
53274;DHT22;39163;52.696;6.758;2023-02-17T01:49:16;9.90;99.90
53274;DHT22;39163;52.696;6.758;2023-02-17T01:51:43;9.90;99.90
53274;DHT22;39163;52.696;6.758;2023-02-17T01:54:14;9.90;99.90
53274;DHT22;39163;52.696;6.758;2023-02-17T01:56:44;9.90;99.90
53274;DHT22;39163;52.696;6.758;2023-02-17T01:59:15;9.90;99.90
53274;DHT22;39163;52.696;6.758;2023-02-17T02:01:48;9.90;99.90
53274;DHT22;39163;52.696;6.758;2023-02-17T02:04:16;9.90;99.90
53274;DHT22;39163;52.696;6.758;2023-02-17T02:06:46;10.00;99.90
53274;DHT22;39163;52.696;6.758;2023-02-17T02:09:21;10.00;99.90
53274;DHT22;39163;52.696;6.758;2023-02-17T02:11:50;10.00;99.90
53274;DHT22;39163;52.696;6.758;2023-02-17T02:14:19;10.00;99.90
53274;DHT22;39163;52.696;6.758;2023-02-17T02:17:00;10.00;99.90
53274;DHT22;39163;52.696;6.758;2023-02-17T02:22:06;10.00;99.90
53274;DHT22;39163;52.696;6.758;2023-02-17T02:24:40;10.00;99.90
53274;DHT22;39163;52.696;6.758;2023-02-17T02:30:14;10.00;99.90
53274;DHT22;39163;52.696;6.758;2023-02-17T02:35:54;10.00;99.90
53274;DHT22;39163;52.696;6.758;2023-02-17T02:38:25;10.00;99.90
53274;DHT22;39163;52.696;6.758;2023-02-17T02:41:14;10.00;99.90
53274;DHT22;39163;52.696;6.758;2023-02-17T02:43:38;10.00;99.90
53274;DHT22;39163;52.696;6.758;2023-02-17T02:46:05;10.00;99.90
53274;DHT22;39163;52.696;6.758;2023-02-17T02:48:49;10.00;99.90
53274;DHT22;39163;52.696;6.758;2023-02-17T02:54:03;10.00;99.90
53274;DHT22;39163;52.696;6.758;2023-02-17T02:59:32;10.00;99.90
53274;DHT22;39163;52.696;6.758;2023-02-17T03:04:45;10.00;99.90
53274;DHT22;39163;52.696;6.758;2023-02-17T03:10:14;10.00;99.90
53274;DHT22;39163;52.696;6.758;2023-02-17T03:12:42;10.10;99.90
53274;DHT22;39163;52.696;6.758;2023-02-17T03:17:54;10.10;99.90
53274;DHT22;39163;52.696;6.758;2023-02-17T03:20:26;10.10;99.90
53274;DHT22;39163;52.696;6.758;2023-02-17T03:22:54;10.10;99.90
53274;DHT22;39163;52.696;6.758;2023-02-17T03:25:22;10.10;99.90
53274;DHT22;39163;52.696;6.758;2023-02-17T03:27:51;10.10;99.90
53274;DHT22;39163;52.696;6.758;2023-02-17T03:30:17;10.10;99.90
53274;DHT22;39163;52.696;6.758;2023-02-17T03:32:43;10.10;99.90
53274;DHT22;39163;52.696;6.758;2023-02-17T03:35:18;10.20;99.90
53274;DHT22;39163;52.696;6.758;2023-02-17T03:37:43;10.10;99.90
53274;DHT22;39163;52.696;6.758;2023-02-17T03:40:09;10.00;99.90
53274;DHT22;39163;52.696;6.758;2023-02-17T03:42:50;10.00;99.90
53274;DHT22;39163;52.696;6.758;2023-02-17T03:45:15;10.00;99.90
53274;DHT22;39163;52.696;6.758;2023-02-17T03:47:50;10.00;99.90
53274;DHT22;39163;52.696;6.758;2023-02-17T03:50:16;10.00;99.90
53274;DHT22;39163;52.696;6.758;2023-02-17T03:52:50;10.00;99.90
53274;DHT22;39163;52.696;6.758;2023-02-17T03:55:16;10.00;99.90
53274;DHT22;39163;52.696;6.758;2023-02-17T03:57:45;10.00;99.90
53274;DHT22;39163;52.696;6.758;2023-02-17T04:00:18;10.00;99.90
53274;DHT22;39163;52.696;6.758;2023-02-17T04:02:49;10.00;99.90
53274;DHT22;39163;52.696;6.758;2023-02-17T04:05:15;10.00;99.90
53274;DHT22;39163;52.696;6.758;2023-02-17T04:07:50;10.00;99.90
53274;DHT22;39163;52.696;6.758;2023-02-17T04:10:20;10.00;99.90
53274;DHT22;39163;52.696;6.758;2023-02-17T04:12:48;9.90;99.90
53274;DHT22;39163;52.696;6.758;2023-02-17T04:15:23;9.90;99.90
53274;DHT22;39163;52.696;6.758;2023-02-17T04:17:48;9.90;99.90
53274;DHT22;39163;52.696;6.758;2023-02-17T04:20:14;9.90;99.90
53274;DHT22;39163;52.696;6.758;2023-02-17T04:22:43;9.90;99.90
53274;DHT22;39163;52.696;6.758;2023-02-17T04:25:16;9.90;99.90
53274;DHT22;39163;52.696;6.758;2023-02-17T04:27:42;9.90;99.90
53274;DHT22;39163;52.696;6.758;2023-02-17T04:30:07;9.90;99.90
53274;DHT22;39163;52.696;6.758;2023-02-17T04:32:33;9.90;99.90
53274;DHT22;39163;52.696;6.758;2023-02-17T04:34:59;9.80;99.90
53274;DHT22;39163;52.696;6.758;2023-02-17T04:37:27;9.80;99.90
53274;DHT22;39163;52.696;6.758;2023-02-17T04:39:52;9.80;99.90
53274;DHT22;39163;52.696;6.758;2023-02-17T04:42:18;9.80;99.90
53274;DHT22;39163;52.696;6.758;2023-02-17T04:44:50;9.80;99.90
53274;DHT22;39163;52.696;6.758;2023-02-17T04:47:18;9.80;99.90
53274;DHT22;39163;52.696;6.758;2023-02-17T04:49:47;9.80;99.90
53274;DHT22;39163;52.696;6.758;2023-02-17T04:52:12;9.80;99.90
53274;DHT22;39163;52.696;6.758;2023-02-17T04:54:47;9.80;99.90
53274;DHT22;39163;52.696;6.758;2023-02-17T04:57:12;9.70;99.90
53274;DHT22;39163;52.696;6.758;2023-02-17T04:59:41;9.70;99.90
53274;DHT22;39163;52.696;6.758;2023-02-17T05:02:07;9.70;99.90
53274;DHT22;39163;52.696;6.758;2023-02-17T05:04:32;9.70;99.90
53274;DHT22;39163;52.696;6.758;2023-02-17T05:06:58;9.60;99.90
53274;DHT22;39163;52.696;6.758;2023-02-17T05:09:24;9.60;99.90
53274;DHT22;39163;52.696;6.758;2023-02-17T05:11:49;9.60;99.90
53274;DHT22;39163;52.696;6.758;2023-02-17T05:14:20;9.60;99.90
53274;DHT22;39163;52.696;6.758;2023-02-17T05:16:46;9.60;99.90
53274;DHT22;39163;52.696;6.758;2023-02-17T05:19:17;9.60;99.90
53274;DHT22;39163;52.696;6.758;2023-02-17T05:21:43;9.60;99.90
53274;DHT22;39163;52.696;6.758;2023-02-17T05:24:09;9.60;99.90
53274;DHT22;39163;52.696;6.758;2023-02-17T05:26:50;9.60;99.90
53274;DHT22;39163;52.696;6.758;2023-02-17T05:29:21;9.60;99.90
53274;DHT22;39163;52.696;6.758;2023-02-17T05:31:50;9.60;99.90
53274;DHT22;39163;52.696;6.758;2023-02-17T05:34:19;9.50;99.90
53274;DHT22;39163;52.696;6.758;2023-02-17T05:36:50;9.50;99.90
53274;DHT22;39163;52.696;6.758;2023-02-17T05:39:16;9.50;99.90
53274;DHT22;39163;52.696;6.758;2023-02-17T05:41:47;9.50;99.90
53274;DHT22;39163;52.696;6.758;2023-02-17T05:44:13;9.50;99.90
53274;DHT22;39163;52.696;6.758;2023-02-17T05:46:41;9.50;99.90
53274;DHT22;39163;52.696;6.758;2023-02-17T05:49:07;9.50;99.90
53274;DHT22;39163;52.696;6.758;2023-02-17T05:51:51;9.50;99.90
53274;DHT22;39163;52.696;6.758;2023-02-17T05:54:26;9.50;99.90
53274;DHT22;39163;52.696;6.758;2023-02-17T05:56:51;9.50;99.90
53274;DHT22;39163;52.696;6.758;2023-02-17T05:59:18;9.50;99.90
53274;DHT22;39163;52.696;6.758;2023-02-17T06:01:43;9.50;99.90
53274;DHT22;39163;52.696;6.758;2023-02-17T06:04:09;9.50;99.90
53274;DHT22;39163;52.696;6.758;2023-02-17T06:06:34;9.50;99.90
53274;DHT22;39163;52.696;6.758;2023-02-17T06:09:00;9.50;99.90
53274;DHT22;39163;52.696;6.758;2023-02-17T06:11:26;9.50;99.90
53274;DHT22;39163;52.696;6.758;2023-02-17T06:13:51;9.50;99.90
53274;DHT22;39163;52.696;6.758;2023-02-17T06:16:17;9.50;99.90
53274;DHT22;39163;52.696;6.758;2023-02-17T06:18:42;9.50;99.90
53274;DHT22;39163;52.696;6.758;2023-02-17T06:21:08;9.50;99.90
53274;DHT22;39163;52.696;6.758;2023-02-17T06:23:33;9.50;99.90
53274;DHT22;39163;52.696;6.758;2023-02-17T06:25:59;9.60;99.90
53274;DHT22;39163;52.696;6.758;2023-02-17T06:28:24;9.60;99.90
53274;DHT22;39163;52.696;6.758;2023-02-17T06:30:50;9.60;99.90
53274;DHT22;39163;52.696;6.758;2023-02-17T06:33:16;9.60;99.90
53274;DHT22;39163;52.696;6.758;2023-02-17T06:35:41;9.60;99.90
53274;DHT22;39163;52.696;6.758;2023-02-17T06:38:08;9.70;99.90
53274;DHT22;39163;52.696;6.758;2023-02-17T06:40:34;9.70;99.90
53274;DHT22;39163;52.696;6.758;2023-02-17T06:42:59;9.70;99.90
53274;DHT22;39163;52.696;6.758;2023-02-17T06:45:25;9.80;99.90
53274;DHT22;39163;52.696;6.758;2023-02-17T06:47:51;9.80;99.90
53274;DHT22;39163;52.696;6.758;2023-02-17T06:50:16;9.80;99.90
53274;DHT22;39163;52.696;6.758;2023-02-17T06:52:51;9.80;99.90
53274;DHT22;39163;52.696;6.758;2023-02-17T06:55:32;9.80;99.90
53274;DHT22;39163;52.696;6.758;2023-02-17T06:58:00;9.90;99.90
53274;DHT22;39163;52.696;6.758;2023-02-17T07:00:32;9.90;99.90
53274;DHT22;39163;52.696;6.758;2023-02-17T07:02:57;9.90;99.90
53274;DHT22;39163;52.696;6.758;2023-02-17T07:05:29;9.90;99.90
53274;DHT22;39163;52.696;6.758;2023-02-17T07:07:56;9.90;99.90
53274;DHT22;39163;52.696;6.758;2023-02-17T07:10:27;10.00;99.90
53274;DHT22;39163;52.696;6.758;2023-02-17T07:12:53;10.00;99.90
53274;DHT22;39163;52.696;6.758;2023-02-17T07:15:27;10.00;99.90
53274;DHT22;39163;52.696;6.758;2023-02-17T07:17:53;10.00;99.90
53274;DHT22;39163;52.696;6.758;2023-02-17T07:22:54;10.10;99.90
53274;DHT22;39163;52.696;6.758;2023-02-17T07:25:20;10.10;99.90
53274;DHT22;39163;52.696;6.758;2023-02-17T07:27:46;10.10;99.90
53274;DHT22;39163;52.696;6.758;2023-02-17T07:30:12;10.20;99.90
53274;DHT22;39163;52.696;6.758;2023-02-17T07:32:37;10.10;99.90
53274;DHT22;39163;52.696;6.758;2023-02-17T07:35:03;10.10;99.90
53274;DHT22;39163;52.696;6.758;2023-02-17T07:37:29;10.20;99.90
53274;DHT22;39163;52.696;6.758;2023-02-17T07:39:54;10.20;99.90
53274;DHT22;39163;52.696;6.758;2023-02-17T07:42:21;10.20;99.90
53274;DHT22;39163;52.696;6.758;2023-02-17T07:44:47;10.20;99.90
53274;DHT22;39163;52.696;6.758;2023-02-17T07:47:12;10.20;99.90
53274;DHT22;39163;52.696;6.758;2023-02-17T07:49:38;10.20;99.90
53274;DHT22;39163;52.696;6.758;2023-02-17T07:52:04;10.30;99.90
53274;DHT22;39163;52.696;6.758;2023-02-17T07:54:29;10.20;99.90
53274;DHT22;39163;52.696;6.758;2023-02-17T07:56:55;10.30;99.90
53274;DHT22;39163;52.696;6.758;2023-02-17T07:59:20;10.30;99.90
53274;DHT22;39163;52.696;6.758;2023-02-17T08:01:46;10.30;99.90
53274;DHT22;39163;52.696;6.758;2023-02-17T08:04:12;10.30;99.90
53274;DHT22;39163;52.696;6.758;2023-02-17T08:06:37;10.30;99.90
53274;DHT22;39163;52.696;6.758;2023-02-17T08:09:04;10.30;99.90
53274;DHT22;39163;52.696;6.758;2023-02-17T08:11:48;10.30;99.90
53274;DHT22;39163;52.696;6.758;2023-02-17T08:14:32;10.40;99.90
53274;DHT22;39163;52.696;6.758;2023-02-17T08:16:58;10.40;99.90
53274;DHT22;39163;52.696;6.758;2023-02-17T08:19:24;10.40;99.90
53274;DHT22;39163;52.696;6.758;2023-02-17T08:21:50;10.50;99.90
53274;DHT22;39163;52.696;6.758;2023-02-17T08:24:16;10.50;99.90
53274;DHT22;39163;52.696;6.758;2023-02-17T08:26:44;10.50;99.90
53274;DHT22;39163;52.696;6.758;2023-02-17T08:29:09;10.50;99.90
53274;DHT22;39163;52.696;6.758;2023-02-17T08:31:35;10.50;99.90
53274;DHT22;39163;52.696;6.758;2023-02-17T08:34:02;10.60;99.90
53274;DHT22;39163;52.696;6.758;2023-02-17T08:36:28;10.50;99.90
53274;DHT22;39163;52.696;6.758;2023-02-17T08:38:54;10.60;99.90
53274;DHT22;39163;52.696;6.758;2023-02-17T08:41:24;10.60;99.90
53274;DHT22;39163;52.696;6.758;2023-02-17T08:43:50;10.60;99.90
53274;DHT22;39163;52.696;6.758;2023-02-17T08:46:16;10.70;99.90
53274;DHT22;39163;52.696;6.758;2023-02-17T08:48:42;10.70;99.90
53274;DHT22;39163;52.696;6.758;2023-02-17T08:51:11;10.70;99.90
53274;DHT22;39163;52.696;6.758;2023-02-17T08:53:36;10.70;99.90
53274;DHT22;39163;52.696;6.758;2023-02-17T08:56:02;10.80;99.90
53274;DHT22;39163;52.696;6.758;2023-02-17T08:58:28;10.80;99.90
53274;DHT22;39163;52.696;6.758;2023-02-17T09:00:53;10.80;99.90
53274;DHT22;39163;52.696;6.758;2023-02-17T09:03:19;10.90;99.90
53274;DHT22;39163;52.696;6.758;2023-02-17T09:05:44;10.90;99.90
53274;DHT22;39163;52.696;6.758;2023-02-17T09:08:10;10.90;99.90
53274;DHT22;39163;52.696;6.758;2023-02-17T09:10:36;11.00;99.90
53274;DHT22;39163;52.696;6.758;2023-02-17T09:13:02;11.00;99.90
53274;DHT22;39163;52.696;6.758;2023-02-17T09:15:28;11.10;99.90
53274;DHT22;39163;52.696;6.758;2023-02-17T09:17:53;11.10;99.90
53274;DHT22;39163;52.696;6.758;2023-02-17T09:20:19;11.10;99.90
53274;DHT22;39163;52.696;6.758;2023-02-17T09:22:45;11.20;99.90
53274;DHT22;39163;52.696;6.758;2023-02-17T09:25:10;11.20;99.90
53274;DHT22;39163;52.696;6.758;2023-02-17T09:27:36;11.20;99.90
53274;DHT22;39163;52.696;6.758;2023-02-17T09:30:02;11.20;99.90
53274;DHT22;39163;52.696;6.758;2023-02-17T09:32:28;11.30;99.90
53274;DHT22;39163;52.696;6.758;2023-02-17T09:34:53;11.30;99.90
53274;DHT22;39163;52.696;6.758;2023-02-17T09:37:19;11.30;99.90
53274;DHT22;39163;52.696;6.758;2023-02-17T09:39:45;11.30;99.90
53274;DHT22;39163;52.696;6.758;2023-02-17T09:42:18;11.40;99.90
53274;DHT22;39163;52.696;6.758;2023-02-17T09:44:45;11.40;99.90
53274;DHT22;39163;52.696;6.758;2023-02-17T09:47:17;11.50;99.90
53274;DHT22;39163;52.696;6.758;2023-02-17T09:49:48;11.50;99.90
53274;DHT22;39163;52.696;6.758;2023-02-17T09:57:26;11.60;99.90
53274;DHT22;39163;52.696;6.758;2023-02-17T09:59:54;11.60;99.90
53274;DHT22;39163;52.696;6.758;2023-02-17T10:02:24;11.70;99.90
53274;DHT22;39163;52.696;6.758;2023-02-17T10:04:51;11.70;99.90
53274;DHT22;39163;52.696;6.758;2023-02-17T10:07:25;11.70;99.90
53274;DHT22;39163;52.696;6.758;2023-02-17T10:09:58;11.70;99.90
53274;DHT22;39163;52.696;6.758;2023-02-17T10:12:31;11.70;99.90
53274;DHT22;39163;52.696;6.758;2023-02-17T10:15:08;11.70;99.90
53274;DHT22;39163;52.696;6.758;2023-02-17T10:17:51;11.70;99.90
53274;DHT22;39163;52.696;6.758;2023-02-17T10:20:34;11.70;99.90
53274;DHT22;39163;52.696;6.758;2023-02-17T10:28:16;11.70;99.90
53274;DHT22;39163;52.696;6.758;2023-02-17T10:30:54;11.70;99.90
53274;DHT22;39163;52.696;6.758;2023-02-17T10:33:34;11.70;99.90
53274;DHT22;39163;52.696;6.758;2023-02-17T10:38:50;11.70;99.90
53274;DHT22;39163;52.696;6.758;2023-02-17T10:41:21;11.60;99.90
53274;DHT22;39163;52.696;6.758;2023-02-17T10:43:48;11.70;99.90
53274;DHT22;39163;52.696;6.758;2023-02-17T10:46:14;11.70;99.90
53274;DHT22;39163;52.696;6.758;2023-02-17T10:51:12;11.70;99.90
53274;DHT22;39163;52.696;6.758;2023-02-17T10:53:38;11.70;99.90
53274;DHT22;39163;52.696;6.758;2023-02-17T10:58:39;11.70;99.90
53274;DHT22;39163;52.696;6.758;2023-02-17T11:01:05;11.70;99.90
53274;DHT22;39163;52.696;6.758;2023-02-17T11:03:32;11.70;99.90
53274;DHT22;39163;52.696;6.758;2023-02-17T11:05:59;11.70;99.90
53274;DHT22;39163;52.696;6.758;2023-02-17T11:11:16;11.70;99.90
53274;DHT22;39163;52.696;6.758;2023-02-17T11:13:43;11.70;99.90
53274;DHT22;39163;52.696;6.758;2023-02-17T11:16:24;11.70;99.90
53274;DHT22;39163;52.696;6.758;2023-02-17T11:18:50;11.70;99.90
53274;DHT22;39163;52.696;6.758;2023-02-17T11:21:17;11.70;99.90
53274;DHT22;39163;52.696;6.758;2023-02-17T11:24:02;11.70;99.90
53274;DHT22;39163;52.696;6.758;2023-02-17T11:26:29;11.70;99.90
53274;DHT22;39163;52.696;6.758;2023-02-17T11:29:05;11.70;99.90
53274;DHT22;39163;52.696;6.758;2023-02-17T11:31:31;11.60;99.90
53274;DHT22;39163;52.696;6.758;2023-02-17T11:33:57;11.60;99.90
53274;DHT22;39163;52.696;6.758;2023-02-17T11:36:26;11.60;99.90
53274;DHT22;39163;52.696;6.758;2023-02-17T11:38:52;11.60;99.90
53274;DHT22;39163;52.696;6.758;2023-02-17T11:41:18;11.60;99.90
53274;DHT22;39163;52.696;6.758;2023-02-17T11:43:54;11.70;99.90
53274;DHT22;39163;52.696;6.758;2023-02-17T11:46:22;11.70;99.90
53274;DHT22;39163;52.696;6.758;2023-02-17T11:56:34;11.70;99.90
53274;DHT22;39163;52.696;6.758;2023-02-17T12:09:20;11.70;99.90
53274;DHT22;39163;52.696;6.758;2023-02-17T12:12:00;11.70;99.90
53274;DHT22;39163;52.696;6.758;2023-02-17T12:17:26;11.70;99.90
53274;DHT22;39163;52.696;6.758;2023-02-17T12:20:06;11.70;99.90
53274;DHT22;39163;52.696;6.758;2023-02-17T12:22:37;11.70;99.90
53274;DHT22;39163;52.696;6.758;2023-02-17T12:25:14;11.70;99.90
53274;DHT22;39163;52.696;6.758;2023-02-17T12:27:47;11.70;99.90
53274;DHT22;39163;52.696;6.758;2023-02-17T12:38:18;11.70;99.90
53274;DHT22;39163;52.696;6.758;2023-02-17T12:40:49;11.70;99.90
53274;DHT22;39163;52.696;6.758;2023-02-17T12:43:20;11.70;99.90
53274;DHT22;39163;52.696;6.758;2023-02-17T12:45:47;11.80;99.90
53274;DHT22;39163;52.696;6.758;2023-02-17T12:48:16;11.80;99.90
53274;DHT22;39163;52.696;6.758;2023-02-17T12:50:49;11.80;99.90
53274;DHT22;39163;52.696;6.758;2023-02-17T12:53:20;11.80;99.90
53274;DHT22;39163;52.696;6.758;2023-02-17T12:55:56;11.90;99.90
53274;DHT22;39163;52.696;6.758;2023-02-17T12:58:24;11.90;99.90
53274;DHT22;39163;52.696;6.758;2023-02-17T13:00:51;11.90;99.90
53274;DHT22;39163;52.696;6.758;2023-02-17T13:03:18;11.90;99.90
53274;DHT22;39163;52.696;6.758;2023-02-17T13:08:15;12.00;99.90
53274;DHT22;39163;52.696;6.758;2023-02-17T13:10:43;12.00;99.90
53274;DHT22;39163;52.696;6.758;2023-02-17T13:13:10;12.00;99.90
53274;DHT22;39163;52.696;6.758;2023-02-17T13:15:37;12.00;99.90
53274;DHT22;39163;52.696;6.758;2023-02-17T13:18:05;12.00;99.90
53274;DHT22;39163;52.696;6.758;2023-02-17T13:23:24;12.00;99.90
53274;DHT22;39163;52.696;6.758;2023-02-17T13:26:00;12.00;99.90
53274;DHT22;39163;52.696;6.758;2023-02-17T13:28:33;12.00;99.90
53274;DHT22;39163;52.696;6.758;2023-02-17T13:31:10;12.00;99.90
53274;DHT22;39163;52.696;6.758;2023-02-17T13:33:41;12.00;99.90
53274;DHT22;39163;52.696;6.758;2023-02-17T13:36:11;12.00;99.90
53274;DHT22;39163;52.696;6.758;2023-02-17T13:38:36;12.10;99.90
53274;DHT22;39163;52.696;6.758;2023-02-17T13:41:04;12.10;99.90
53274;DHT22;39163;52.696;6.758;2023-02-17T13:43:37;12.10;99.90
53274;DHT22;39163;52.696;6.758;2023-02-17T13:46:04;12.20;99.90
53274;DHT22;39163;52.696;6.758;2023-02-17T13:48:34;12.20;99.90
53274;DHT22;39163;52.696;6.758;2023-02-17T13:51:00;12.10;99.90
53274;DHT22;39163;52.696;6.758;2023-02-17T13:53:34;12.20;99.90
53274;DHT22;39163;52.696;6.758;2023-02-17T13:56:02;12.20;99.90
53274;DHT22;39163;52.696;6.758;2023-02-17T14:00:54;12.20;99.90
53274;DHT22;39163;52.696;6.758;2023-02-17T14:05:49;12.20;99.90
53274;DHT22;39163;52.696;6.758;2023-02-17T14:08:20;12.20;99.90
53274;DHT22;39163;52.696;6.758;2023-02-17T14:10:46;12.20;99.90
53274;DHT22;39163;52.696;6.758;2023-02-17T14:13:12;12.20;99.90
53274;DHT22;39163;52.696;6.758;2023-02-17T14:15:48;12.20;99.90
53274;DHT22;39163;52.696;6.758;2023-02-17T14:18:14;12.20;99.90
53274;DHT22;39163;52.696;6.758;2023-02-17T14:20:40;12.20;99.90
53274;DHT22;39163;52.696;6.758;2023-02-17T14:23:12;12.20;99.90
53274;DHT22;39163;52.696;6.758;2023-02-17T14:25:42;12.10;99.90
53274;DHT22;39163;52.696;6.758;2023-02-17T14:28:24;12.10;99.90
53274;DHT22;39163;52.696;6.758;2023-02-17T14:30:50;12.10;99.90
53274;DHT22;39163;52.696;6.758;2023-02-17T14:35:58;12.00;99.90
53274;DHT22;39163;52.696;6.758;2023-02-17T14:38:29;12.10;99.90
53274;DHT22;39163;52.696;6.758;2023-02-17T14:40:56;12.10;99.90
53274;DHT22;39163;52.696;6.758;2023-02-17T14:43:22;12.10;99.90
53274;DHT22;39163;52.696;6.758;2023-02-17T14:45:48;12.10;99.90
53274;DHT22;39163;52.696;6.758;2023-02-17T14:48:14;12.10;99.90
53274;DHT22;39163;52.696;6.758;2023-02-17T14:50:40;12.20;99.90
53274;DHT22;39163;52.696;6.758;2023-02-17T14:53:19;12.10;99.90
53274;DHT22;39163;52.696;6.758;2023-02-17T14:55:49;12.20;99.90
53274;DHT22;39163;52.696;6.758;2023-02-17T14:58:21;12.20;99.90
53274;DHT22;39163;52.696;6.758;2023-02-17T15:00:48;12.20;99.90
53274;DHT22;39163;52.696;6.758;2023-02-17T15:03:14;12.30;99.90
53274;DHT22;39163;52.696;6.758;2023-02-17T15:05:46;12.30;99.90
53274;DHT22;39163;52.696;6.758;2023-02-17T15:08:20;12.30;99.90
53274;DHT22;39163;52.696;6.758;2023-02-17T15:10:46;12.20;99.90
53274;DHT22;39163;52.696;6.758;2023-02-17T15:13:13;12.20;99.90
53274;DHT22;39163;52.696;6.758;2023-02-17T15:15:39;12.20;99.90
53274;DHT22;39163;52.696;6.758;2023-02-17T15:18:13;12.20;99.90
53274;DHT22;39163;52.696;6.758;2023-02-17T15:20:46;12.20;99.90
53274;DHT22;39163;52.696;6.758;2023-02-17T15:23:15;12.20;99.90
53274;DHT22;39163;52.696;6.758;2023-02-17T15:31:36;12.10;99.90
53274;DHT22;39163;52.696;6.758;2023-02-17T15:34:11;12.10;99.90
53274;DHT22;39163;52.696;6.758;2023-02-17T15:47:07;11.90;99.90
53274;DHT22;39163;52.696;6.758;2023-02-17T16:28:53;11.40;99.90
53274;DHT22;39163;52.696;6.758;2023-02-17T16:31:20;11.40;99.90
53274;DHT22;39163;52.696;6.758;2023-02-17T16:33:45;11.30;99.90
53274;DHT22;39163;52.696;6.758;2023-02-17T16:36:15;11.30;99.90
53274;DHT22;39163;52.696;6.758;2023-02-17T16:38:41;11.30;99.90
53274;DHT22;39163;52.696;6.758;2023-02-17T16:41:11;11.30;99.90
53274;DHT22;39163;52.696;6.758;2023-02-17T16:43:40;11.20;99.90
53274;DHT22;39163;52.696;6.758;2023-02-17T16:46:05;11.20;99.90
53274;DHT22;39163;52.696;6.758;2023-02-17T16:48:36;11.10;99.90
53274;DHT22;39163;52.696;6.758;2023-02-17T16:51:12;11.00;99.90
53274;DHT22;39163;52.696;6.758;2023-02-17T16:53:37;11.00;99.90
53274;DHT22;39163;52.696;6.758;2023-02-17T16:56:07;10.90;99.90
53274;DHT22;39163;52.696;6.758;2023-02-17T16:58:37;10.90;99.90
53274;DHT22;39163;52.696;6.758;2023-02-17T17:01:04;10.80;99.90
53274;DHT22;39163;52.696;6.758;2023-02-17T17:03:30;10.80;99.90
53274;DHT22;39163;52.696;6.758;2023-02-17T17:05:55;10.70;99.90
53274;DHT22;39163;52.696;6.758;2023-02-17T17:08:21;10.70;99.90
53274;DHT22;39163;52.696;6.758;2023-02-17T17:10:47;10.70;99.90
53274;DHT22;39163;52.696;6.758;2023-02-17T17:13:13;10.70;99.90
53274;DHT22;39163;52.696;6.758;2023-02-17T17:15:40;10.60;99.90
53274;DHT22;39163;52.696;6.758;2023-02-17T17:18:14;10.60;99.90
53274;DHT22;39163;52.696;6.758;2023-02-17T17:20:42;10.60;99.90
53274;DHT22;39163;52.696;6.758;2023-02-17T17:23:09;10.60;99.90
53274;DHT22;39163;52.696;6.758;2023-02-17T17:25:42;10.50;99.90
53274;DHT22;39163;52.696;6.758;2023-02-17T17:28:13;10.50;99.90
53274;DHT22;39163;52.696;6.758;2023-02-17T17:30:39;10.50;99.90
53274;DHT22;39163;52.696;6.758;2023-02-17T17:33:05;10.50;99.90
53274;DHT22;39163;52.696;6.758;2023-02-17T17:35:31;10.40;99.90
53274;DHT22;39163;52.696;6.758;2023-02-17T17:37:56;10.40;99.90
53274;DHT22;39163;52.696;6.758;2023-02-17T17:40:26;10.40;99.90
53274;DHT22;39163;52.696;6.758;2023-02-17T17:42:52;10.40;99.90
53274;DHT22;39163;52.696;6.758;2023-02-17T17:45:18;10.40;99.90
53274;DHT22;39163;52.696;6.758;2023-02-17T17:47:44;10.30;99.90
53274;DHT22;39163;52.696;6.758;2023-02-17T17:50:12;10.20;99.90
53274;DHT22;39163;52.696;6.758;2023-02-17T17:52:38;10.10;99.90
53274;DHT22;39163;52.696;6.758;2023-02-17T17:55:04;10.10;99.90
53274;DHT22;39163;52.696;6.758;2023-02-17T17:57:30;10.00;99.90
53274;DHT22;39163;52.696;6.758;2023-02-17T17:59:55;9.90;99.90
53274;DHT22;39163;52.696;6.758;2023-02-17T18:02:21;9.90;99.90
53274;DHT22;39163;52.696;6.758;2023-02-17T18:04:47;9.80;99.90
53274;DHT22;39163;52.696;6.758;2023-02-17T18:07:12;9.80;99.90
53274;DHT22;39163;52.696;6.758;2023-02-17T18:09:38;9.70;99.90
53274;DHT22;39163;52.696;6.758;2023-02-17T18:12:06;9.70;99.90